Time;durP1;ratioP1;P1;durP2;ratioP2;P2;SDS_P1;SDS_P2;PMS_P1;PMS_P2;Temp;Humidity;BMP_temperature;BMP_pressure;BME280_temperature;BME280_humidity;BME280_pressure;Samples;Min_cycle;Max_cycle;Signal;HPM_P1;HPM_P2
2022/05/08 00:02:18;;;;;;;10.38;6.55;;;;;;;11.50;nan;102666.81;5032327;28;20072;-46
2022/05/08 00:04:45;;;;;;;12.18;6.43;;;;;;;11.01;nan;102608.25;5034730;28;20445;-44
2022/05/08 00:07:11;;;;;;;10.68;6.55;;;;;;;11.13;nan;102627.50;5026482;28;20052;-44
2022/05/08 00:09:36;;;;;;;13.85;7.40;;;;;;;11.42;nan;102680.03;5029909;28;20045;-45
2022/05/08 00:12:02;;;;;;;15.90;7.40;;;;;;;10.98;nan;102601.22;5034213;28;20109;-43
2022/05/08 00:14:27;;;;;;;16.50;7.63;;;;;;;11.07;nan;102621.38;5039251;28;20064;-44
2022/05/08 00:16:52;;;;;;;9.75;7.07;;;;;;;11.26;nan;102671.38;5034229;28;20026;-54
2022/05/08 00:19:17;;;;;;;16.10;8.05;;;;;;;10.96;nan;102637.25;5034122;28;20110;-45
2022/05/08 00:21:43;;;;;;;10.32;7.65;;;;;;;10.88;nan;102627.66;5034254;28;20034;-46
2022/05/08 00:24:09;;;;;;;13.10;7.60;;;;;;;11.09;nan;102680.25;5034161;28;20029;-48
2022/05/08 00:26:35;;;;;;;14.45;7.72;;;;;;;11.02;nan;102681.16;5034050;28;20431;-45
2022/05/08 00:29:00;;;;;;;14.88;7.75;;;;;;;10.98;nan;102676.75;5031145;28;20099;-44
2022/05/08 00:31:25;;;;;;;14.60;8.23;;;;;;;10.87;nan;102666.28;5034136;28;20041;-46
2022/05/08 00:33:51;;;;;;;14.27;8.23;;;;;;;10.47;nan;102609.41;5027520;28;20072;-46
2022/05/08 00:36:16;;;;;;;14.20;8.27;;;;;;;10.70;nan;102671.63;5033604;28;20043;-45
2022/05/08 00:38:42;;;;;;;16.20;8.27;;;;;;;10.38;nan;102633.13;5033821;28;20052;-45
2022/05/08 00:41:08;;;;;;;13.55;7.53;;;;;;;10.49;nan;102676.97;5033504;28;20484;-45
2022/05/08 00:43:35;;;;;;;16.45;8.10;;;;;;;10.41;nan;102683.13;5033871;28;20048;-44
2022/05/08 00:46:08;;;;;;;22.23;9.20;;;;;;;10.32;nan;102677.91;5033505;28;20044;-45
2022/05/08 00:48:34;;;;;;;17.50;7.90;;;;;;;10.24;nan;102679.66;5026812;28;20569;-46
2022/05/08 00:51:05;;;;;;;18.15;7.55;;;;;;;9.92;nan;102634.97;5033440;28;20069;-48
2022/05/08 00:53:42;;;;;;;16.30;7.72;;;;;;;10.03;nan;102664.75;5033598;28;20048;-45
2022/05/08 00:56:09;;;;;;;16.83;7.50;;;;;;;10.05;nan;102686.66;5033304;28;20040;-45
2022/05/08 00:58:36;;;;;;;15.23;7.60;;;;;;;9.72;nan;102634.94;5032108;28;20068;-49
2022/05/08 01:01:02;;;;;;;14.30;7.30;;;;;;;9.64;nan;102631.47;5032664;28;20061;-46
2022/05/08 01:03:28;;;;;;;19.00;7.20;;;;;;;9.54;nan;102630.56;5017431;28;20025;-48
2022/05/08 01:05:54;;;;;;;16.90;8.63;;;;;;;9.76;nan;102691.06;5033620;28;20041;-47
2022/05/08 01:08:21;;;;;;;16.70;7.45;;;;;;;9.68;nan;102671.78;5032807;28;20044;-45
2022/05/08 01:10:47;;;;;;;20.02;8.07;;;;;;;9.22;nan;102608.66;5028360;28;20370;-47
2022/05/08 01:13:13;;;;;;;16.83;7.85;;;;;;;9.51;nan;102672.66;5015297;28;20048;-48
2022/05/08 01:15:46;;;;;;;21.98;8.40;;;;;;;9.12;nan;102612.16;5033209;28;20041;-46
2022/05/08 01:18:13;;;;;;;18.90;7.95;;;;;;;9.36;nan;102672.63;5032929;28;20480;-49
2022/05/08 01:20:44;;;;;;;21.50;8.23;;;;;;;9.27;nan;102659.47;5031924;28;20075;-47
2022/05/08 01:23:10;;;;;;;22.95;8.05;;;;;;;8.91;nan;102607.72;5032789;28;20570;-45
2022/05/08 01:25:41;;;;;;;16.90;7.63;;;;;;;9.21;nan;102672.59;5032913;28;20029;-46
2022/05/08 01:28:06;;;;;;;19.55;10.00;;;;;;;8.99;nan;102639.25;5031551;28;20045;-44
2022/05/08 01:30:32;;;;;;;21.75;9.43;;;;;;;9.13;nan;102663.81;5033046;28;20037;-45
2022/05/08 01:33:00;;;;;;;18.70;8.18;;;;;;;9.08;nan;102664.69;5033133;28;20033;-46
2022/05/08 01:35:25;;;;;;;22.63;8.65;;;;;;;9.02;nan;102665.53;5032519;28;20044;-45
2022/05/08 01:37:51;;;;;;;23.33;9.00;;;;;;;9.00;nan;102667.28;5033042;28;20034;-48
2022/05/08 01:40:19;;;;;;;21.75;7.75;;;;;;;8.58;nan;102601.50;5032902;28;20036;-45
2022/05/08 01:42:44;;;;;;;19.15;8.10;;;;;;;8.64;nan;102607.63;5032960;28;20033;-46
2022/05/08 01:45:11;;;;;;;17.50;7.53;;;;;;;8.79;nan;102640.94;5032770;28;20040;-46
2022/05/08 01:50:21;;;;;;;21.33;7.70;;;;;;;8.51;nan;102616.34;5033021;28;20123;-44
2022/05/08 01:52:46;;;;;;;22.10;8.40;;;;;;;8.76;nan;102675.06;5033000;28;20041;-47
2022/05/08 01:55:11;;;;;;;18.95;7.97;;;;;;;8.74;nan;102668.94;5032638;28;20472;-43
2022/05/08 01:57:36;;;;;;;27.75;8.43;;;;;;;8.61;nan;102648.75;5031619;28;20065;-47
2022/05/08 02:00:04;;;;;;;26.27;8.32;;;;;;;8.62;nan;102669.75;5031953;28;20033;-44
2022/05/08 02:02:30;;;;;;;18.13;8.07;;;;;;;8.62;nan;102659.25;5031980;28;20492;-42
2022/05/08 02:04:56;;;;;;;17.65;7.25;;;;;;;8.39;nan;102614.53;5032231;28;20395;-45
2022/05/08 02:07:21;;;;;;;19.35;7.47;;;;;;;8.65;nan;102668.88;5031796;28;20041;-43
2022/05/08 02:09:46;;;;;;;19.85;7.88;;;;;;;8.62;nan;102669.75;5001278;28;20425;-45
2022/05/08 02:12:12;;;;;;;19.55;7.82;;;;;;;8.58;nan;102675.84;5032066;28;20056;-45
2022/05/08 02:14:37;;;;;;;21.70;7.40;;;;;;;8.56;nan;102677.59;5022930;28;20404;-46
2022/05/08 02:17:04;;;;;;;22.02;9.00;;;;;;;8.54;nan;102673.22;5031397;28;20076;-45
2022/05/08 02:19:29;;;;;;;24.65;7.20;;;;;;;8.16;nan;102617.88;5032116;28;20179;-45
2022/05/08 02:21:54;;;;;;;17.60;7.47;;;;;;;8.17;nan;102627.50;5018252;28;20124;-45
2022/05/08 02:24:20;;;;;;;24.58;7.50;;;;;;;8.44;nan;102680.16;5030979;28;20037;-46
2022/05/08 02:26:45;;;;;;;16.98;7.50;;;;;;;8.38;nan;102667.00;5032286;28;20033;-48
2022/05/08 02:29:10;;;;;;;17.67;6.82;;;;;;;8.47;nan;102674.91;5031833;28;20163;-48
2022/05/08 02:31:36;;;;;;;21.05;6.97;;;;;;;8.23;nan;102649.38;5031984;28;20033;-43
2022/05/08 02:34:02;;;;;;;22.48;7.50;;;;;;;8.42;nan;102674.91;5031834;28;20128;-43
2022/05/08 02:36:27;;;;;;;26.23;8.07;;;;;;;8.06;nan;102621.28;5031733;28;20065;-46
2022/05/08 02:38:52;;;;;;;21.33;6.95;;;;;;;8.07;nan;102625.69;5031811;28;20030;-47
2022/05/08 02:41:18;;;;;;;19.92;7.22;;;;;;;8.36;nan;102681.88;5031691;28;20045;-44
2022/05/08 02:43:43;;;;;;;20.52;7.20;;;;;;;8.31;nan;102687.09;5031709;28;20034;-45
2022/05/08 02:46:08;;;;;;;20.45;6.78;;;;;;;8.32;nan;102691.47;5030117;28;20044;-45
2022/05/08 02:48:33;;;;;;;21.02;6.43;;;;;;;8.29;nan;102682.72;5031584;28;20314;-45
2022/05/08 02:50:59;;;;;;;23.75;6.60;;;;;;;8.24;nan;102680.00;5031610;28;20037;-46
2022/05/08 02:53:24;;;;;;;24.02;7.97;;;;;;;8.28;nan;102688.81;5030514;28;20531;-47
2022/05/08 02:58:33;;;;;;;18.63;6.55;;;;;;;8.24;nan;102698.38;5031020;28;20538;-46
2022/05/08 03:01:00;;;;;;;18.77;7.68;;;;;;;8.12;nan;102685.16;5031021;28;20120;-44
2022/05/08 03:03:26;;;;;;;23.92;8.07;;;;;;;8.18;nan;102700.94;5029666;28;20044;-45
2022/05/08 03:05:52;;;;;;;15.65;6.13;;;;;;;8.15;nan;102695.69;5002123;28;20038;-46
2022/05/08 03:08:17;;;;;;;23.42;7.63;;;;;;;7.79;nan;102646.47;5008404;28;20595;-45
2022/05/08 03:13:28;;;;;;;18.20;6.40;;;;;;;8.07;nan;102702.63;5031142;28;20183;-45
2022/05/08 03:15:53;;;;;;;20.65;6.50;;;;;;;7.81;nan;102659.59;5031126;28;20512;-48
2022/05/08 03:18:19;;;;;;;21.48;7.40;;;;;;;8.00;nan;102705.22;5031076;28;20032;-45
2022/05/08 03:20:44;;;;;;;19.52;6.82;;;;;;;7.98;nan;102709.53;5029907;28;20083;-48
2022/05/08 03:23:10;;;;;;;21.83;6.80;;;;;;;7.96;nan;102706.03;5030916;28;20120;-45
2022/05/08 03:25:36;;;;;;;17.90;6.53;;;;;;;7.94;nan;102706.00;5030889;28;20106;-51
2022/05/08 03:28:02;;;;;;;19.85;7.25;;;;;;;7.54;nan;102641.91;5031178;28;20038;-45
2022/05/08 03:30:28;;;;;;;23.55;8.15;;;;;;;7.93;nan;102705.16;5031248;28;20038;-48
2022/05/08 03:32:54;;;;;;;19.30;6.60;;;;;;;7.71;nan;102673.47;5013662;28;20048;-44
2022/05/08 03:35:19;;;;;;;20.98;6.32;;;;;;;7.89;nan;102713.84;4996805;28;20029;-47
2022/05/08 03:37:44;;;;;;;27.17;6.15;;;;;;;7.88;nan;102713.84;5031198;28;20144;-47
2022/05/08 03:40:10;;;;;;;19.95;6.28;;;;;;;7.60;nan;102662.91;5031050;28;20042;-47
2022/05/08 03:42:35;;;;;;;22.83;7.10;;;;;;;7.55;nan;102655.88;5031025;28;20040;-45
2022/05/08 03:45:01;;;;;;;20.55;6.72;;;;;;;7.85;nan;102719.06;5031051;28;20346;-46
2022/05/08 03:47:26;;;;;;;20.92;6.65;;;;;;;7.87;nan;102714.72;5013462;28;20117;-43
2022/05/08 03:49:51;;;;;;;30.58;7.80;;;;;;;7.91;nan;102719.97;5030827;28;20065;-46
2022/05/08 03:52:17;;;;;;;21.85;6.43;;;;;;;7.60;nan;102660.28;5027229;28;20075;-44
2022/05/08 03:54:42;;;;;;;23.23;6.07;;;;;;;7.64;nan;102650.72;5035509;28;20041;-45
2022/05/08 03:57:07;;;;;;;21.10;6.82;;;;;;;8.05;nan;102698.25;5030350;28;20113;-46
2022/05/08 03:59:33;;;;;;;16.33;5.95;;;;;;;7.83;nan;102666.59;5024257;28;20045;-45
2022/05/08 04:01:58;;;;;;;21.52;7.25;;;;;;;7.86;nan;102657.88;5029678;28;20503;-43
2022/05/08 04:04:23;;;;;;;14.13;5.65;;;;;;;8.18;nan;102713.19;5030722;28;20499;-45
2022/05/08 04:06:48;;;;;;;23.33;6.35;;;;;;;8.20;nan;102712.31;5030511;28;20041;-45
2022/05/08 04:09:16;;;;;;;20.15;5.82;;;;;;;8.27;nan;102708.94;5030369;28;20041;-43
2022/05/08 04:11:41;;;;;;;21.23;6.05;;;;;;;8.41;nan;102730.00;5030488;28;20048;-46
2022/05/08 04:14:06;;;;;;;22.98;6.75;;;;;;;8.43;nan;102729.13;5030960;28;20033;-46
2022/05/08 04:16:32;;;;;;;19.65;5.82;;;;;;;8.37;nan;102716.00;5031016;28;20033;-45
2022/05/08 04:18:57;;;;;;;22.83;5.68;;;;;;;8.41;nan;102735.25;5029368;28;20029;-48
2022/05/08 04:21:22;;;;;;;16.50;5.38;;;;;;;8.40;nan;102731.75;5030911;28;20041;-44
2022/05/08 04:26:33;;;;;;;21.90;6.00;;;;;;;8.50;nan;102737.94;5031149;28;20122;-48
2022/05/08 04:29:00;;;;;;;19.95;5.80;;;;;;;8.50;nan;102748.44;5031056;28;20041;-42
2022/05/08 04:31:25;;;;;;;19.67;5.20;;;;;;;8.51;nan;102751.94;5030915;28;20030;-43
2022/05/08 04:33:51;;;;;;;14.68;4.63;;;;;;;8.55;nan;102749.34;5046233;28;20034;-45
2022/05/08 04:36:17;;;;;;;22.52;5.70;;;;;;;8.55;nan;102756.34;5030946;28;20045;-49
2022/05/08 04:38:43;;;;;;;23.42;4.95;;;;;;;8.25;nan;102684.41;5034485;28;20030;-47
2022/05/08 04:41:08;;;;;;;19.25;5.35;;;;;;;8.29;nan;102694.06;5034267;28;20033;-47
2022/05/08 04:43:34;;;;;;;20.25;5.85;;;;;;;8.44;nan;102709.91;5034395;28;20084;-44
2022/05/08 04:45:59;;;;;;;17.30;5.55;;;;;;;8.27;nan;102671.28;5034166;28;20033;-44
2022/05/08 04:48:24;;;;;;;19.13;5.45;;;;;;;8.76;nan;102749.47;5002926;28;20041;-43
2022/05/08 04:50:49;;;;;;;21.10;6.03;;;;;;;8.78;nan;102754.72;5032063;28;20103;-44
2022/05/08 04:53:15;;;;;;;25.95;5.50;;;;;;;8.75;nan;102755.59;5014772;28;20030;-45
2022/05/08 04:55:40;;;;;;;22.38;4.97;;;;;;;8.47;nan;102715.16;5033707;28;20041;-44
2022/05/08 04:58:06;;;;;;;21.33;5.10;;;;;;;8.85;nan;102772.25;5033621;28;20127;-44
2022/05/08 05:00:31;;;;;;;20.48;4.95;;;;;;;8.93;nan;102770.56;5033451;28;20396;-44
2022/05/08 05:02:56;;;;;;;13.38;4.53;;;;;;;8.98;nan;102774.09;5033539;28;20048;-44
2022/05/08 05:05:22;;;;;;;16.45;4.85;;;;;;;9.08;nan;102785.53;5033218;28;20036;-44
2022/05/08 05:07:47;;;;;;;24.05;4.85;;;;;;;8.83;nan;102734.63;5022377;28;20030;-44
2022/05/08 05:10:13;;;;;;;28.35;5.60;;;;;;;8.88;nan;102731.13;5033272;28;20472;-44
2022/05/08 05:12:39;;;;;;;10.50;4.72;;;;;;;9.29;nan;102798.75;5033363;28;20040;-45
2022/05/08 05:15:05;;;;;;;17.52;5.07;;;;;;;9.34;nan;102790.00;5033206;28;20037;-46
2022/05/08 05:17:31;;;;;;;19.52;4.82;;;;;;;9.49;nan;102802.31;5043880;28;20388;-46
2022/05/08 05:19:56;;;;;;;17.88;4.55;;;;;;;9.46;nan;102797.94;5023614;28;20036;-45
2022/05/08 05:22:22;;;;;;;18.50;5.53;;;;;;;9.45;nan;102817.22;5033026;28;20564;-45
2022/05/08 05:24:48;;;;;;;20.80;5.03;;;;;;;9.09;nan;102738.25;5033065;28;20025;-46
2022/05/08 05:27:13;;;;;;;17.48;4.95;;;;;;;9.48;nan;102806.72;5033156;28;20038;-52
2022/05/08 05:29:38;;;;;;;16.10;5.15;;;;;;;9.53;nan;102812.88;5033423;28;20406;-45
2022/05/08 05:32:04;;;;;;;23.40;5.00;;;;;;;9.47;nan;102802.31;5033321;28;20479;-51
2022/05/08 05:34:29;;;;;;;17.92;4.72;;;;;;;9.61;nan;102821.66;5015240;28;20044;-49
2022/05/08 05:36:54;;;;;;;15.77;4.53;;;;;;;9.72;nan;102812.91;5033005;28;20038;-45
2022/05/08 05:39:20;;;;;;;19.73;4.55;;;;;;;9.47;nan;102757.63;5033060;28;20034;-47
2022/05/08 05:41:45;;;;;;;19.55;4.65;;;;;;;9.82;nan;102807.66;5033355;28;20064;-44
2022/05/08 05:44:11;;;;;;;18.33;4.90;;;;;;;9.94;nan;102815.59;5015346;28;20029;-44
2022/05/08 05:49:34;;;;;;;19.95;5.25;;;;;;;10.10;nan;102830.50;4999115;28;20045;-46
2022/05/08 05:52:00;;;;;;;15.27;3.70;;;;;;;9.68;nan;102763.81;5032819;28;20406;-49
2022/05/08 05:54:26;;;;;;;14.20;4.07;;;;;;;10.09;nan;102825.25;5015226;28;20029;-46
2022/05/08 05:56:51;;;;;;;21.90;4.68;;;;;;;9.87;nan;102784.88;5015051;28;20040;-48
2022/05/08 05:59:17;;;;;;;18.13;5.45;;;;;;;10.22;nan;102840.19;5032702;28;20080;-45
2022/05/08 06:01:43;;;;;;;20.98;5.03;;;;;;;10.22;nan;102828.78;5029858;28;20036;-45
2022/05/08 06:04:08;;;;;;;16.02;4.60;;;;;;;9.96;nan;102782.25;5031567;28;20048;-44
2022/05/08 06:06:34;;;;;;;15.52;4.63;;;;;;;10.28;nan;102829.69;5021068;28;20033;-49
2022/05/08 06:08:59;;;;;;;21.75;4.50;;;;;;;10.42;nan;102848.97;5043945;28;20034;-47
2022/05/08 06:11:25;;;;;;;19.35;4.90;;;;;;;10.61;nan;102841.97;4994450;28;20029;-48
2022/05/08 06:13:50;;;;;;;15.00;4.50;;;;;;;10.69;nan;102848.09;5018479;28;20041;-47
2022/05/08 06:16:15;;;;;;;17.17;4.80;;;;;;;10.52;nan;102798.09;5037016;28;20541;-47
2022/05/08 06:18:41;;;;;;;12.93;4.10;;;;;;;10.92;nan;102846.31;5031306;28;20087;-45
2022/05/08 06:21:06;;;;;;;17.80;4.65;;;;;;;10.77;nan;102798.06;5032021;28;20048;-49
2022/05/08 06:23:33;;;;;;;18.00;4.78;;;;;;;11.25;nan;102866.44;5032284;28;20037;-49
2022/05/08 06:25:58;;;;;;;26.98;5.40;;;;;;;11.18;nan;102857.66;5025741;28;20128;-46
2022/05/08 06:28:23;;;;;;;15.55;4.00;;;;;;;11.10;nan;102827.81;5031570;28;20117;-46
2022/05/08 06:30:49;;;;;;;14.93;3.63;;;;;;;11.00;nan;102807.66;5019308;28;20045;-46
2022/05/08 06:33:14;;;;;;;8.77;3.22;;;;;;;10.87;nan;102805.03;5031545;28;20037;-43
2022/05/08 06:35:41;;;;;;;14.85;4.30;;;;;;;11.12;nan;102880.53;5031483;28;20045;-46
2022/05/08 06:38:10;;;;;;;16.17;3.75;;;;;;;11.13;nan;102867.34;5013920;28;20037;-48
2022/05/08 06:40:36;;;;;;;14.30;4.38;;;;;;;11.15;nan;102876.13;5024907;28;20082;-47
2022/05/08 06:43:02;;;;;;;11.02;3.17;;;;;;;11.19;nan;102867.31;5027040;28;20472;-48
2022/05/08 06:45:27;;;;;;;10.43;3.80;;;;;;;11.19;nan;102863.81;5031436;28;20041;-44
2022/05/08 06:47:53;;;;;;;14.07;4.20;;;;;;;11.38;nan;102886.63;5026226;28;20037;-46
2022/05/08 06:50:18;;;;;;;12.68;3.53;;;;;;;11.58;nan;102890.06;5031293;28;20053;-44
2022/05/08 06:52:44;;;;;;;13.88;3.72;;;;;;;11.74;nan;102899.69;5032014;28;20144;-46
2022/05/08 06:55:09;;;;;;;14.98;4.05;;;;;;;11.56;nan;102846.97;5031795;28;20052;-44
2022/05/08 06:57:34;;;;;;;14.90;3.78;;;;;;;12.00;nan;102896.91;5031248;28;20415;-45
2022/05/08 07:02:44;;;;;;;15.82;3.35;;;;;;;12.08;nan;102894.22;5030869;28;20563;-46
2022/05/08 07:05:09;;;;;;;18.70;4.78;;;;;;;12.02;nan;102871.41;5031509;28;20061;-46
2022/05/08 07:07:35;;;;;;;11.57;3.78;;;;;;;12.19;nan;102888.00;5031135;28;20064;-48
2022/05/08 07:10:00;;;;;;;11.93;3.50;;;;;;;12.45;nan;102900.13;5031695;28;20511;-44
2022/05/08 07:12:25;;;;;;;11.80;3.30;;;;;;;12.65;nan;102903.50;5031580;28;20073;-46
2022/05/08 07:14:53;;;;;;;18.98;3.60;;;;;;;12.66;nan;102848.00;5030773;28;20049;-46
2022/05/08 07:17:21;;;;;;;12.93;3.30;;;;;;;13.17;nan;102910.06;5029664;28;20052;-44
2022/05/08 07:19:46;;;;;;;14.48;3.40;;;;;;;13.13;nan;102912.78;5030206;28;20045;-47
2022/05/08 07:22:12;;;;;;;11.98;3.38;;;;;;;13.32;nan;102883.47;5031214;28;20382;-47
2022/05/08 07:24:39;;;;;;;12.05;3.53;;;;;;;13.34;nan;102851.69;5031172;28;20037;-44
2022/05/08 07:27:05;;;;;;;14.45;4.60;;;;;;;13.91;nan;102922.44;5027816;28;20120;-48
2022/05/08 07:29:30;;;;;;;17.88;3.65;;;;;;;14.05;nan;102866.63;5030581;28;20112;-47
2022/05/08 07:31:55;;;;;;;10.85;3.22;;;;;;;14.08;nan;102871.88;5030410;28;20045;-47
2022/05/08 07:37:04;;;;;;;9.90;3.05;;;;;;;14.89;nan;102871.44;5030738;28;20056;-47
2022/05/08 07:39:30;;;;;;;8.95;2.15;;;;;;;15.57;nan;102934.75;5030677;28;20025;-44
2022/05/08 07:41:55;;;;;;;13.35;3.50;;;;;;;15.74;nan;102887.47;5029971;28;20033;-46
2022/05/08 07:44:20;;;;;;;12.15;2.83;;;;;;;16.01;nan;102932.94;5030857;28;20037;-49
2022/05/08 07:46:46;;;;;;;9.55;2.90;;;;;;;16.12;nan;102938.88;5018257;28;20188;-44
2022/05/08 07:49:11;;;;;;;11.90;3.25;;;;;;;16.24;nan;102949.25;5030895;28;20054;-47
2022/05/08 07:51:36;;;;;;;10.90;3.28;;;;;;;16.44;nan;102946.13;5030702;28;20461;-48
2022/05/08 07:54:02;;;;;;;9.23;3.42;;;;;;;15.52;nan;102909.19;5030597;28;20531;-46
2022/05/08 07:56:28;;;;;;;11.60;2.90;;;;;;;15.56;nan;102953.34;5031189;28;20042;-45
2022/05/08 07:58:53;;;;;;;10.18;3.05;;;;;;;15.66;nan;102896.50;5030675;28;20132;-45
2022/05/08 08:01:19;;;;;;;11.57;3.58;;;;;;;15.73;nan;102901.66;5019837;28;20121;-45
2022/05/08 08:03:44;;;;;;;9.55;3.03;;;;;;;15.55;nan;102956.91;5025954;28;20057;-49
2022/05/08 08:06:09;;;;;;;13.05;3.28;;;;;;;14.93;nan;102908.50;5030712;28;20048;-53
2022/05/08 08:08:35;;;;;;;13.45;3.15;;;;;;;15.07;nan;102953.34;5031192;28;20158;-45
2022/05/08 08:11:03;;;;;;;11.13;3.30;;;;;;;15.18;nan;102949.59;5032756;28;20132;-47
2022/05/08 08:13:31;;;;;;;13.65;5.00;;;;;;;15.90;nan;102943.81;5034915;28;20139;-47
2022/05/08 08:15:56;;;;;;;10.10;2.75;;;;;;;16.71;nan;102956.13;5031517;28;20080;-48
2022/05/08 08:18:22;;;;;;;11.90;3.15;;;;;;;16.90;nan;102898.88;5018547;28;20472;-49
2022/05/08 08:20:47;;;;;;;7.93;2.88;;;;;;;17.52;nan;102947.78;5011010;28;20038;-47
2022/05/08 08:23:14;;;;;;;8.82;3.22;;;;;;;17.05;nan;102901.16;5040841;28;20042;-45
2022/05/08 08:25:40;;;;;;;9.00;3.10;;;;;;;16.45;nan;102906.22;5033047;28;20057;-48
2022/05/08 08:28:06;;;;;;;9.80;3.25;;;;;;;16.59;nan;102954.66;5034036;28;20108;-44
2022/05/08 08:30:31;;;;;;;7.10;2.53;;;;;;;16.31;nan;102840.09;5033169;28;20072;-47
2022/05/08 08:32:56;;;;;;;8.48;2.78;;;;;;;17.14;nan;102951.47;5032714;28;20029;-43
2022/05/08 08:35:22;;;;;;;10.85;2.95;;;;;;;17.27;nan;102901.47;5031963;28;20041;-44
2022/05/08 08:37:48;;;;;;;13.07;3.03;;;;;;;18.40;nan;102918.50;5014890;28;20071;-45
2022/05/08 08:40:13;;;;;;;10.05;3.22;;;;;;;18.50;nan;102952.84;5033565;28;20033;-46
2022/05/08 08:42:43;;;;;;;10.48;2.53;;;;;;;18.26;nan;102940.28;5020559;28;20033;-46
2022/05/08 08:48:02;;;;;;;7.85;2.65;;;;;;;17.30;nan;102896.94;5044672;28;20039;-46
2022/05/08 08:50:28;;;;;;;8.02;2.58;;;;;;;17.48;nan;102955.91;5018209;28;20053;-43
2022/05/08 08:52:58;;;;;;;8.20;2.47;;;;;;;17.04;nan;102938.47;5033458;28;20416;-47
2022/05/08 08:55:24;;;;;;;8.70;2.50;;;;;;;17.20;nan;102894.53;5033569;28;20037;-46
2022/05/08 08:57:50;;;;;;;7.18;2.65;;;;;;;17.98;nan;102952.66;5033661;28;20039;-46
2022/05/08 09:00:17;;;;;;;8.70;2.40;;;;;;;18.18;nan;102897.00;5016366;28;20091;-45
2022/05/08 09:02:43;;;;;;;9.10;2.67;;;;;;;18.34;nan;102894.69;5033637;28;20040;-48
2022/05/08 09:05:09;;;;;;;9.00;2.33;;;;;;;18.26;nan;102950.06;5032198;28;20034;-45
2022/05/08 09:07:45;;;;;;;10.77;2.50;;;;;;;18.02;nan;102897.50;5032158;28;20029;-47
2022/05/08 09:10:26;;;;;;;11.85;3.22;;;;;;;19.16;nan;102951.53;5032117;28;20034;-49
2022/05/08 09:12:51;;;;;;;8.63;2.30;;;;;;;19.90;nan;102958.66;5033438;28;20025;-45
2022/05/08 09:15:22;;;;;;;9.67;2.33;;;;;;;19.28;nan;102951.09;5033515;28;20048;-48
2022/05/08 09:17:49;;;;;;;;;;;;;;;19.77;nan;102947.53;5033600;28;20310;-48
2022/05/08 09:20:43;;;;;;;9.30;3.58;;;;;;;19.56;nan;102954.56;5031021;28;19917;-47
2022/05/08 09:23:14;;;;;;;4.10;1.75;;;;;;;20.08;nan;102955.28;5006675;28;20025;-45
2022/05/08 09:25:45;;;;;;;5.90;2.10;;;;;;;19.54;nan;102951.06;5033071;28;20044;-50
2022/05/08 09:28:15;;;;;;;7.75;2.30;;;;;;;19.98;nan;102960.09;5016602;28;20029;-49
2022/05/08 09:30:53;;;;;;;8.07;2.53;;;;;;;20.12;nan;102948.88;5032932;28;20026;-48
2022/05/08 09:33:26;;;;;;;6.40;2.20;;;;;;;20.22;nan;102931.53;5032963;28;20295;-46
2022/05/08 09:35:52;;;;;;;8.98;2.28;;;;;;;20.56;nan;102960.50;5045898;28;20379;-46
2022/05/08 09:38:17;;;;;;;9.80;2.75;;;;;;;20.63;nan;102946.84;5016337;28;20037;-46
2022/05/08 09:40:45;;;;;;;7.00;2.38;;;;;;;20.91;nan;102946.53;5033036;28;20326;-50
2022/05/08 09:43:28;;;;;;;6.32;2.10;;;;;;;20.51;nan;102888.47;5033068;28;20029;-43
2022/05/08 09:45:57;;;;;;;8.77;2.40;;;;;;;21.16;nan;102936.53;5033046;28;20486;-50
2022/05/08 09:48:26;;;;;;;10.27;2.53;;;;;;;21.24;nan;102949.63;5029622;28;20037;-53
2022/05/08 09:50:54;;;;;;;7.45;2.25;;;;;;;21.09;nan;102952.94;5020905;28;20057;-48
2022/05/08 09:53:20;;;;;;;8.57;2.35;;;;;;;20.94;nan;102948.22;5024446;28;20037;-45
2022/05/08 09:55:46;;;;;;;6.53;2.55;;;;;;;20.61;nan;102951.34;5018118;28;20092;-45
2022/05/08 09:58:11;;;;;;;6.05;2.60;;;;;;;19.94;nan;102946.91;5014861;28;20163;-48
2022/05/08 10:00:39;;;;;;;3.83;1.30;;;;;;;20.34;nan;102947.16;5032700;28;20038;-48
2022/05/08 10:03:06;;;;;;;6.60;2.10;;;;;;;20.27;nan;102888.59;5032560;28;20037;-49
2022/05/08 10:05:33;;;;;;;5.82;1.77;;;;;;;21.10;nan;102896.63;5032413;28;20427;-48
2022/05/08 10:08:00;;;;;;;9.20;2.35;;;;;;;21.54;nan;102945.56;5015764;28;20203;-43
2022/05/08 10:15:53;;;;;;;5.93;1.90;;;;;;;22.24;nan;102931.59;5031980;28;20283;-49
2022/05/08 10:18:31;;;;;;;6.95;2.25;;;;;;;21.76;nan;102945.47;5032111;28;20037;-48
2022/05/08 10:21:01;;;;;;;5.47;2.10;;;;;;;21.33;nan;102881.38;5032276;28;20025;-47
2022/05/08 10:23:37;;;;;;;7.15;1.80;;;;;;;21.42;nan;102872.91;5030616;28;20547;-47
2022/05/08 10:26:22;;;;;;;8.80;2.40;;;;;;;20.87;nan;102942.25;5031190;28;20021;-50
2022/05/08 10:29:12;;;;;;;4.60;1.67;;;;;;;21.29;nan;102935.09;5030851;28;20476;-45
2022/05/08 10:31:42;;;;;;;7.05;2.08;;;;;;;20.63;nan;102924.56;5030771;28;20116;-47
2022/05/08 10:34:08;;;;;;;4.18;1.60;;;;;;;21.19;nan;102925.69;5012446;28;20056;-48
2022/05/08 10:36:34;;;;;;;5.45;2.25;;;;;;;21.01;nan;102882.78;5025738;28;20037;-47
2022/05/08 10:39:30;;;;;;;3.05;1.50;;;;;;;20.86;nan;102926.25;5019877;28;20044;-44
2022/05/08 10:41:56;;;;;;;5.22;1.90;;;;;;;21.42;nan;102932.75;5029875;28;20125;-47
2022/05/08 10:44:35;;;;;;;5.60;2.08;;;;;;;22.11;nan;102920.59;5029317;28;20041;-52
2022/05/08 10:47:32;;;;;;;8.15;2.30;;;;;;;21.88;nan;102923.50;5030586;28;20492;-45
2022/05/08 10:49:58;;;;;;;5.57;1.98;;;;;;;21.67;nan;102871.72;5013917;28;20479;-47
2022/05/08 10:52:23;;;;;;;6.10;1.70;;;;;;;22.22;nan;102903.97;5030171;28;20096;-46
2022/05/08 10:54:58;;;;;;;7.47;2.13;;;;;;;22.65;nan;102892.88;5030440;28;20037;-46
2022/05/08 10:57:33;;;;;;;7.20;1.58;;;;;;;23.50;nan;102926.91;5030836;28;20049;-45
2022/05/08 11:00:02;;;;;;;5.65;1.55;;;;;;;23.26;nan;102922.81;5027587;28;20052;-46
2022/05/08 11:02:40;;;;;;;7.93;1.70;;;;;;;23.23;nan;102933.75;5015183;28;20043;-46
2022/05/08 11:05:10;;;;;;;4.93;1.95;;;;;;;23.05;nan;102906.94;5030457;28;20550;-47
2022/05/08 11:07:50;;;;;;;5.03;2.10;;;;;;;22.92;nan;102931.75;5030302;28;20036;-45
2022/05/08 11:10:18;;;;;;;4.57;2.40;;;;;;;22.48;nan;102933.06;5012387;28;20319;-48
2022/05/08 11:13:05;;;;;;;4.50;1.35;;;;;;;21.82;nan;102926.41;5012517;28;20037;-45
2022/05/08 11:15:31;;;;;;;5.95;2.03;;;;;;;21.54;nan;102915.25;5030176;28;20033;-50
2022/05/08 11:18:32;;;;;;;4.13;1.85;;;;;;;22.46;nan;102924.25;5030193;28;20038;-46
2022/05/08 11:21:02;;;;;;;8.30;1.80;;;;;;;22.04;nan;102873.53;4968778;28;20089;-48
2022/05/08 11:23:31;;;;;;;5.80;2.00;;;;;;;21.76;nan;102932.06;5014563;28;20053;-44
2022/05/08 11:25:58;;;;;;;6.20;1.77;;;;;;;21.02;nan;102881.81;5014510;28;20030;-47
2022/05/08 11:28:24;;;;;;;4.47;1.55;;;;;;;21.62;nan;102889.81;5030244;28;20033;-48
2022/05/08 11:30:51;;;;;;;6.20;2.35;;;;;;;22.28;nan;102907.22;5022421;28;20026;-51
2022/05/08 11:36:26;;;;;;;6.43;2.55;;;;;;;22.79;nan;102868.91;5030004;28;20064;-45
2022/05/08 11:38:58;;;;;;;6.07;2.05;;;;;;;22.89;nan;102914.94;5029691;28;20037;-47
2022/05/08 11:41:25;;;;;;;5.28;1.83;;;;;;;22.37;nan;102847.75;5030305;28;20033;-44
2022/05/08 11:43:57;;;;;;;5.00;2.28;;;;;;;23.30;nan;102908.25;5030724;28;20124;-45
2022/05/08 11:46:36;;;;;;;6.00;2.53;;;;;;;23.53;nan;102916.00;5032594;28;20033;-46
2022/05/08 11:49:11;;;;;;;6.22;2.15;;;;;;;21.68;nan;102891.34;5033295;28;20651;-44
2022/05/08 11:51:40;;;;;;;5.18;1.60;;;;;;;22.81;nan;102899.22;5034507;28;20136;-47
2022/05/08 11:54:05;;;;;;;5.03;1.45;;;;;;;23.43;nan;102904.03;5034981;28;20049;-48
2022/05/08 11:56:35;;;;;;;6.03;1.90;;;;;;;22.72;nan;102878.22;5033771;28;20111;-46
2022/05/08 11:59:01;;;;;;;5.32;1.90;;;;;;;23.34;nan;102906.28;5033968;28;20025;-50
2022/05/08 12:01:30;;;;;;;5.28;1.73;;;;;;;24.12;nan;102893.03;5035155;28;20029;-45
2022/05/08 12:03:57;;;;;;;7.15;1.85;;;;;;;23.84;nan;102856.03;5034747;28;20033;-46
2022/05/08 12:06:23;;;;;;;4.93;1.90;;;;;;;23.13;nan;102857.25;5027317;28;20060;-46
2022/05/08 12:08:49;;;;;;;4.28;1.83;;;;;;;23.10;nan;102895.00;5023892;28;20476;-47
2022/05/08 12:11:27;;;;;;;3.72;1.98;;;;;;;22.75;nan;102853.00;5021953;28;20171;-45